Time;durP1;ratioP1;P1;durP2;ratioP2;P2;SDS_P1;SDS_P2;PMS_P1;PMS_P2;Temp;Humidity;BMP_temperature;BMP_pressure;BME280_temperature;BME280_humidity;BME280_pressure;Samples;Min_cycle;Max_cycle;Signal;HPM_P1;HPM_P2
2021/11/25 00:01:44;;;;;;;32.72;22.27;;;3.10;77.50;;;;;;4931743;29;20115;-83
2021/11/25 00:04:11;;;;;;;33.53;22.23;;;3.10;77.50;;;;;;4932553;29;20111;-83
2021/11/25 00:06:39;;;;;;;34.90;22.90;;;3.10;77.60;;;;;;4931371;29;20059;-83
2021/11/25 00:09:06;;;;;;;36.83;23.75;;;3.10;77.60;;;;;;4931134;29;20063;-83
2021/11/25 00:11:33;;;;;;;35.47;23.33;;;3.10;77.60;;;;;;4931531;29;20043;-83
2021/11/25 00:14:00;;;;;;;34.30;22.83;;;3.10;77.70;;;;;;4931614;29;20560;-83
2021/11/25 00:16:27;;;;;;;33.00;22.75;;;3.00;77.70;;;;;;4931438;29;20048;-83
2021/11/25 00:18:54;;;;;;;38.35;23.75;;;3.10;77.70;;;;;;4933404;29;20055;-83
2021/11/25 00:21:21;;;;;;;37.60;23.88;;;3.00;77.70;;;;;;4931447;29;20048;-83
2021/11/25 00:23:49;;;;;;;36.08;23.30;;;3.00;77.70;;;;;;4931024;29;20055;-83
2021/11/25 00:26:17;;;;;;;35.85;22.92;;;3.00;77.70;;;;;;4931422;29;20099;-83
2021/11/25 00:28:45;;;;;;;33.45;22.67;;;3.00;77.70;;;;;;4931456;29;20048;-83
2021/11/25 00:31:12;;;;;;;37.50;24.27;;;3.00;77.70;;;;;;4932301;29;20056;-83
2021/11/25 00:33:39;;;;;;;38.33;24.65;;;3.00;77.80;;;;;;4932929;29;20059;-83
2021/11/25 00:36:06;;;;;;;37.25;23.58;;;3.00;77.80;;;;;;4932719;29;20071;-83
2021/11/25 00:38:33;;;;;;;32.42;23.08;;;3.00;77.80;;;;;;4933128;29;20048;-83
2021/11/25 00:41:01;;;;;;;36.67;23.27;;;3.00;77.80;;;;;;4934973;29;20535;-83
2021/11/25 00:43:27;;;;;;;38.38;22.95;;;3.00;77.90;;;;;;4934567;29;20056;-83
2021/11/25 00:45:54;;;;;;;34.78;22.42;;;3.00;77.90;;;;;;4936419;29;20492;-84
2021/11/25 00:48:21;;;;;;;37.15;23.95;;;2.90;77.90;;;;;;4934729;29;20473;-83
2021/11/25 00:50:48;;;;;;;33.83;22.77;;;2.90;77.90;;;;;;4934519;29;20044;-83
2021/11/25 00:53:15;;;;;;;34.38;22.27;;;2.90;77.90;;;;;;4934727;29;20055;-84
2021/11/25 00:55:43;;;;;;;36.85;24.10;;;2.90;77.90;;;;;;4934768;29;20050;-84
2021/11/25 00:58:11;;;;;;;37.10;23.55;;;2.90;78.00;;;;;;4935679;29;20062;-83
2021/11/25 01:00:38;;;;;;;33.60;22.42;;;2.90;78.00;;;;;;4935862;29;20129;-83
2021/11/25 01:03:06;;;;;;;34.72;22.75;;;2.90;78.00;;;;;;4934546;29;20060;-83
2021/11/25 01:05:33;;;;;;;35.95;24.08;;;2.90;78.00;;;;;;4934353;29;20055;-83
2021/11/25 01:08:00;;;;;;;35.90;23.30;;;2.90;78.00;;;;;;4934682;29;20054;-83
2021/11/25 01:10:28;;;;;;;33.85;22.35;;;2.90;78.00;;;;;;4934497;29;20055;-83
2021/11/25 01:12:56;;;;;;;39.25;23.63;;;2.90;78.00;;;;;;4936510;29;20055;-83
2021/11/25 01:15:31;;;;;;;34.75;22.52;;;2.80;78.00;;;;;;4934249;29;20043;-83
2021/11/25 01:18:06;;;;;;;36.75;24.67;;;2.80;78.10;;;;;;4932757;29;20052;-83
2021/11/25 01:20:34;;;;;;;34.30;23.85;;;2.80;78.10;;;;;;4933719;29;20520;-83
2021/11/25 01:23:04;;;;;;;33.75;21.90;;;2.80;78.10;;;;;;4932968;29;20043;-83
2021/11/25 01:25:31;;;;;;;37.00;23.50;;;2.80;78.10;;;;;;4919178;29;20059;-83
2021/11/25 01:27:59;;;;;;;33.08;21.98;;;2.80;78.10;;;;;;4932101;29;20056;-83
2021/11/25 01:30:26;;;;;;;34.15;23.52;;;2.80;78.10;;;;;;4934160;29;20583;-82
2021/11/25 01:32:53;;;;;;;35.78;22.73;;;2.80;78.10;;;;;;4934006;29;20094;-83
2021/11/25 01:35:20;;;;;;;36.67;24.30;;;2.80;78.10;;;;;;4933710;29;20051;-83
2021/11/25 01:37:48;;;;;;;36.10;24.02;;;2.80;78.10;;;;;;4932789;29;20501;-82
2021/11/25 01:40:17;;;;;;;37.58;24.42;;;2.70;78.10;;;;;;4934388;29;20056;-83
2021/11/25 01:42:44;;;;;;;36.20;23.67;;;2.70;78.10;;;;;;4934039;29;20047;-83
2021/11/25 01:45:14;;;;;;;34.88;23.73;;;2.70;78.10;;;;;;4933838;29;20512;-84
2021/11/25 01:47:43;;;;;;;36.63;24.25;;;2.70;78.10;;;;;;4932902;29;20058;-83
2021/11/25 01:50:13;;;;;;;38.45;23.67;;;2.70;78.10;;;;;;4933365;29;20493;-83
2021/11/25 01:52:40;;;;;;;37.00;24.77;;;2.70;78.20;;;;;;4933769;29;20528;-83
2021/11/25 01:55:08;;;;;;;39.35;26.55;;;2.70;78.20;;;;;;4934997;29;20106;-84
2021/11/25 01:57:35;;;;;;;39.90;25.20;;;2.70;78.20;;;;;;4932298;29;20477;-84
2021/11/25 02:00:07;;;;;;;38.92;24.52;;;2.70;78.20;;;;;;4933399;29;20083;-83
2021/11/25 02:02:33;;;;;;;36.88;24.58;;;2.70;78.30;;;;;;4932309;29;20043;-83
2021/11/25 02:05:01;;;;;;;41.75;25.83;;;2.70;78.30;;;;;;4933132;29;20051;-83
2021/11/25 02:07:27;;;;;;;35.72;24.13;;;2.70;78.30;;;;;;4933406;29;20107;-83
2021/11/25 02:09:54;;;;;;;38.40;24.88;;;2.70;78.40;;;;;;4935472;29;20461;-83
2021/11/25 02:12:22;;;;;;;36.30;24.48;;;2.70;78.40;;;;;;4933345;29;20051;-83
2021/11/25 02:14:49;;;;;;;36.35;23.23;;;2.70;78.40;;;;;;4933272;29;20457;-83
2021/11/25 02:17:16;;;;;;;35.40;24.17;;;2.70;78.50;;;;;;4933108;29;20048;-83
2021/11/25 02:19:43;;;;;;;43.47;24.20;;;2.70;78.50;;;;;;4932895;29;20048;-83
2021/11/25 02:22:10;;;;;;;39.60;24.83;;;2.70;78.50;;;;;;4934319;29;20063;-83
2021/11/25 02:24:38;;;;;;;41.30;26.48;;;2.70;78.50;;;;;;4934622;29;20055;-83
2021/11/25 02:27:05;;;;;;;40.33;25.60;;;2.70;78.60;;;;;;4931939;29;20087;-83
2021/11/25 02:29:32;;;;;;;40.40;24.02;;;2.70;78.60;;;;;;4931771;29;20091;-83
2021/11/25 02:31:59;;;;;;;40.95;25.17;;;2.70;78.60;;;;;;4933060;29;20048;-83
2021/11/25 02:34:26;;;;;;;37.15;25.05;;;2.70;78.70;;;;;;4932116;29;20040;-83
2021/11/25 02:36:53;;;;;;;38.60;24.95;;;2.80;78.70;;;;;;4934396;29;20054;-83
2021/11/25 02:39:20;;;;;;;38.85;23.95;;;2.70;78.70;;;;;;4932684;29;20595;-83
2021/11/25 02:41:47;;;;;;;40.33;24.60;;;2.80;78.70;;;;;;4931454;29;20056;-83
2021/11/25 02:44:14;;;;;;;42.00;25.17;;;2.80;78.80;;;;;;4932791;29;20048;-83
2021/11/25 02:46:41;;;;;;;40.08;25.92;;;2.80;78.80;;;;;;4932720;29;20107;-83
2021/11/25 02:49:08;;;;;;;39.33;25.40;;;2.80;78.80;;;;;;4933548;29;20107;-83
2021/11/25 02:51:35;;;;;;;41.35;24.25;;;2.80;78.90;;;;;;4933744;29;20465;-83
2021/11/25 02:54:03;;;;;;;40.15;25.48;;;2.80;78.90;;;;;;4932536;29;20048;-84
2021/11/25 02:56:30;;;;;;;44.88;26.67;;;2.80;78.90;;;;;;4932306;29;20055;-83
2021/11/25 02:58:59;;;;;;;39.17;25.00;;;2.80;78.90;;;;;;4932530;29;20048;-83
2021/11/25 03:01:30;;;;;;;40.65;25.88;;;2.80;79.00;;;;;;4932165;29;20106;-83
2021/11/25 03:03:59;;;;;;;39.60;26.83;;;2.90;79.00;;;;;;4930332;29;20056;-83
2021/11/25 03:06:26;;;;;;;41.60;24.80;;;2.80;79.00;;;;;;4932453;29;20052;-83
2021/11/25 03:08:54;;;;;;;41.25;25.45;;;2.80;79.00;;;;;;4932360;29;20044;-83
2021/11/25 03:11:24;;;;;;;43.17;27.10;;;2.80;79.10;;;;;;4932322;29;20051;-83
2021/11/25 03:13:54;;;;;;;37.55;24.58;;;2.90;79.10;;;;;;4930939;29;20040;-83
2021/11/25 03:16:22;;;;;;;45.25;27.15;;;2.90;79.10;;;;;;4931849;29;20119;-83
2021/11/25 03:18:50;;;;;;;39.13;25.63;;;2.90;79.10;;;;;;4934233;29;20106;-83
2021/11/25 03:21:18;;;;;;;43.20;24.92;;;2.90;79.20;;;;;;4930676;29;20059;-83
2021/11/25 03:23:48;;;;;;;43.03;26.17;;;2.90;79.20;;;;;;4932011;29;20418;-83
2021/11/25 03:26:19;;;;;;;43.95;26.45;;;2.90;79.20;;;;;;4932077;29;20087;-83
2021/11/25 03:28:46;;;;;;;42.03;26.25;;;2.90;79.30;;;;;;4932041;29;20052;-83
2021/11/25 03:31:20;;;;;;;39.60;26.58;;;2.90;79.30;;;;;;4932276;29;20059;-83
2021/11/25 03:33:47;;;;;;;43.50;27.45;;;2.90;79.30;;;;;;4932646;29;20056;-83
2021/11/25 03:36:14;;;;;;;40.72;26.25;;;2.90;79.40;;;;;;4931921;29;20055;-82
2021/11/25 03:38:42;;;;;;;43.40;26.92;;;2.90;79.40;;;;;;4931858;29;20044;-83
2021/11/25 03:41:10;;;;;;;42.95;25.25;;;2.90;79.40;;;;;;4931700;29;20099;-82
2021/11/25 03:43:37;;;;;;;45.10;26.65;;;2.90;79.50;;;;;;4931972;29;20044;-82
2021/11/25 03:46:04;;;;;;;44.08;27.02;;;3.00;79.50;;;;;;4932822;29;20644;-82
2021/11/25 03:48:32;;;;;;;42.28;27.08;;;3.00;79.50;;;;;;4932476;29;20056;-82
2021/11/25 03:51:02;;;;;;;42.88;26.83;;;3.00;79.60;;;;;;4931780;29;20110;-82
2021/11/25 03:53:29;;;;;;;44.22;27.52;;;3.00;79.60;;;;;;4930224;29;20052;-82
2021/11/25 03:55:56;;;;;;;43.13;26.90;;;3.00;79.60;;;;;;4931662;29;20040;-82
2021/11/25 03:58:23;;;;;;;44.20;26.88;;;3.00;79.60;;;;;;4931716;29;20054;-82
2021/11/25 04:00:52;;;;;;;46.03;27.33;;;3.00;79.70;;;;;;4932314;29;20051;-82
2021/11/25 04:03:23;;;;;;;39.38;25.75;;;3.00;79.70;;;;;;4931600;29;20119;-81
2021/11/25 04:05:51;;;;;;;51.90;28.45;;;3.00;79.70;;;;;;4931451;29;20055;-82
2021/11/25 04:08:18;;;;;;;45.08;27.48;;;3.00;79.80;;;;;;4931558;29;20040;-82
2021/11/25 04:10:46;;;;;;;41.13;26.77;;;3.10;79.80;;;;;;4932585;29;20052;-81
2021/11/25 04:13:13;;;;;;;44.22;26.90;;;3.10;79.80;;;;;;4936274;29;20044;-81
2021/11/25 04:15:40;;;;;;;43.88;26.20;;;3.10;79.80;;;;;;4936816;29;20059;-81
2021/11/25 04:18:07;;;;;;;42.22;27.55;;;3.10;79.90;;;;;;4935351;29;20449;-83
2021/11/25 04:20:34;;;;;;;45.95;27.98;;;3.10;79.90;;;;;;4935328;29;20047;-83
2021/11/25 04:23:03;;;;;;;44.70;28.75;;;3.10;79.90;;;;;;4935400;29;20458;-82
2021/11/25 04:25:33;;;;;;;47.25;28.20;;;3.10;79.90;;;;;;4920287;29;20426;-82
2021/11/25 04:28:01;;;;;;;44.53;27.63;;;3.20;80.00;;;;;;4933448;29;20060;-82
2021/11/25 04:35:55;;;;;;;44.92;27.13;;;3.20;80.00;;;;;;4934997;29;20047;-82
2021/11/25 04:38:23;;;;;;;47.42;29.17;;;3.20;80.10;;;;;;4933597;29;20043;-82
2021/11/25 04:40:54;;;;;;;44.65;27.45;;;3.20;80.10;;;;;;4935084;29;20048;-82
2021/11/25 04:43:23;;;;;;;49.95;29.05;;;3.20;80.10;;;;;;4934743;29;20059;-82
2021/11/25 04:45:52;;;;;;;42.88;27.98;;;3.20;80.20;;;;;;4937064;29;20512;-82
2021/11/25 04:48:22;;;;;;;44.92;28.55;;;3.30;80.20;;;;;;4934958;29;20058;-81
2021/11/25 04:50:49;;;;;;;46.22;27.80;;;3.30;80.20;;;;;;4934908;29;20508;-81
2021/11/25 04:53:17;;;;;;;46.63;28.80;;;3.30;80.30;;;;;;4934823;29;20110;-81
2021/11/25 04:55:44;;;;;;;40.75;27.05;;;3.30;80.30;;;;;;4934832;29;20563;-82
2021/11/25 04:58:12;;;;;;;44.30;27.75;;;3.30;80.30;;;;;;4935278;29;20063;-82
2021/11/25 05:00:39;;;;;;;42.60;26.98;;;3.30;80.30;;;;;;4936085;29;20119;-81
2021/11/25 05:03:06;;;;;;;45.70;28.50;;;3.30;80.40;;;;;;4934657;29;20052;-82
2021/11/25 05:05:34;;;;;;;44.78;28.42;;;3.30;80.40;;;;;;4934625;29;20121;-82
2021/11/25 05:08:01;;;;;;;45.70;27.17;;;3.40;80.40;;;;;;4934622;29;20055;-82
2021/11/25 05:10:28;;;;;;;42.50;27.48;;;3.30;80.40;;;;;;4933772;29;20064;-82
2021/11/25 05:12:55;;;;;;;46.28;28.48;;;3.40;80.40;;;;;;4935813;29;20055;-82
2021/11/25 05:15:22;;;;;;;45.25;28.05;;;3.30;80.50;;;;;;4934367;29;20057;-82
2021/11/25 05:17:51;;;;;;;40.15;26.95;;;3.40;80.50;;;;;;4933031;29;20073;-83
2021/11/25 05:20:18;;;;;;;44.22;28.88;;;3.40;80.50;;;;;;4934341;29;20067;-83
2021/11/25 05:22:45;;;;;;;48.40;28.83;;;3.40;80.50;;;;;;4933161;29;20051;-83
2021/11/25 05:25:15;;;;;;;47.80;29.88;;;3.40;80.60;;;;;;4934915;29;20056;-83
2021/11/25 05:27:43;;;;;;;43.25;27.08;;;3.40;80.60;;;;;;4933917;29;20044;-83
2021/11/25 05:30:11;;;;;;;42.25;27.45;;;3.40;80.60;;;;;;4934122;29;20052;-83
2021/11/25 05:32:38;;;;;;;48.17;27.90;;;3.40;80.70;;;;;;4934012;29;20078;-83
2021/11/25 05:35:07;;;;;;;41.20;28.27;;;3.40;80.70;;;;;;4934071;29;20048;-83
2021/11/25 05:37:34;;;;;;;46.35;28.42;;;3.40;80.70;;;;;;4934168;29;20095;-83
2021/11/25 05:40:03;;;;;;;50.65;30.30;;;3.40;80.70;;;;;;4936073;29;20517;-82
2021/11/25 05:42:32;;;;;;;46.42;29.02;;;3.40;80.80;;;;;;4933774;29;20078;-82
2021/11/25 05:44:59;;;;;;;49.78;30.77;;;3.40;80.80;;;;;;4933940;29;20087;-82
2021/11/25 05:47:31;;;;;;;46.00;30.52;;;3.50;80.90;;;;;;4933713;29;20066;-82
2021/11/25 05:49:58;;;;;;;47.63;29.25;;;3.50;81.00;;;;;;4933943;29;20067;-83
2021/11/25 05:52:26;;;;;;;51.97;31.02;;;3.50;81.00;;;;;;4932618;29;20047;-83
2021/11/25 05:54:54;;;;;;;46.67;29.13;;;3.50;81.10;;;;;;4935687;29;20509;-82
2021/11/25 05:57:21;;;;;;;47.40;28.73;;;3.50;81.10;;;;;;4931736;29;20048;-82
2021/11/25 05:59:48;;;;;;;47.83;30.60;;;3.50;81.20;;;;;;4933506;29;20056;-82
2021/11/25 06:02:16;;;;;;;48.38;30.48;;;3.60;81.20;;;;;;4933592;29;20126;-82
2021/11/25 06:04:44;;;;;;;48.35;31.48;;;3.60;81.30;;;;;;4933574;29;20102;-83
2021/11/25 06:07:11;;;;;;;48.00;30.45;;;3.60;81.30;;;;;;4934335;29;20055;-82
2021/11/25 06:09:42;;;;;;;51.78;30.50;;;3.60;81.30;;;;;;4935310;29;20103;-82
2021/11/25 06:12:09;;;;;;;49.10;30.02;;;3.60;81.40;;;;;;4933065;29;20103;-82
2021/11/25 06:14:37;;;;;;;49.65;31.35;;;3.70;81.50;;;;;;4933241;29;20056;-82
2021/11/25 06:17:04;;;;;;;57.50;31.60;;;3.70;81.50;;;;;;4933251;29;20095;-82
2021/11/25 06:19:31;;;;;;;46.20;30.60;;;3.70;81.50;;;;;;4918469;29;20047;-82
2021/11/25 06:21:59;;;;;;;47.55;30.52;;;3.70;81.60;;;;;;4931180;29;20063;-83
2021/11/25 06:24:26;;;;;;;51.47;32.35;;;3.80;81.60;;;;;;4931696;29;20048;-82
2021/11/25 06:26:53;;;;;;;56.10;33.03;;;3.80;81.70;;;;;;4933043;29;20524;-82
2021/11/25 06:29:20;;;;;;;55.15;31.67;;;3.80;81.80;;;;;;4931655;29;20052;-82
2021/11/25 06:31:47;;;;;;;56.60;33.00;;;3.80;81.80;;;;;;4933070;29;20043;-82
2021/11/25 06:34:14;;;;;;;49.05;29.50;;;3.90;81.90;;;;;;4933630;29;20048;-82
2021/11/25 06:36:41;;;;;;;52.13;31.48;;;3.90;81.90;;;;;;4932759;29;20059;-82
2021/11/25 06:39:08;;;;;;;55.55;32.50;;;3.90;82.00;;;;;;4932367;29;20143;-82
2021/11/25 06:41:36;;;;;;;56.25;33.67;;;4.00;82.00;;;;;;4932839;29;20553;-82
2021/11/25 06:44:03;;;;;;;49.85;31.58;;;4.00;82.10;;;;;;4932891;29;20444;-82
2021/11/25 06:46:30;;;;;;;58.83;32.95;;;4.00;82.10;;;;;;4917737;29;20099;-82
2021/11/25 06:49:03;;;;;;;54.20;33.13;;;4.00;82.20;;;;;;4931202;29;20102;-82
2021/11/25 06:51:31;;;;;;;51.15;32.58;;;4.10;82.20;;;;;;4931998;29;20662;-82
2021/11/25 06:53:58;;;;;;;62.70;34.45;;;4.10;82.30;;;;;;4932287;29;20186;-82
2021/11/25 06:56:25;;;;;;;52.83;32.40;;;4.10;82.30;;;;;;4932359;29;20070;-82
2021/11/25 06:58:53;;;;;;;53.42;32.10;;;4.10;82.40;;;;;;4932630;29;20044;-82
2021/11/25 07:01:20;;;;;;;50.92;31.88;;;4.20;82.40;;;;;;4931257;29;20428;-82
2021/11/25 07:03:47;;;;;;;58.80;33.88;;;4.20;82.50;;;;;;4934512;29;20047;-82
2021/11/25 07:06:14;;;;;;;54.40;33.33;;;4.20;82.50;;;;;;4932415;29;20059;-82
2021/11/25 07:08:41;;;;;;;51.95;33.10;;;4.20;82.50;;;;;;4930364;29;20055;-82
2021/11/25 07:11:08;;;;;;;57.20;32.65;;;4.30;82.60;;;;;;4932339;29;20535;-82
2021/11/25 07:13:35;;;;;;;59.30;34.92;;;4.20;82.60;;;;;;4931127;29;20056;-82
2021/11/25 07:16:03;;;;;;;49.45;31.60;;;4.30;82.60;;;;;;4934139;29;20540;-82
2021/11/25 07:18:30;;;;;;;61.50;34.83;;;4.30;82.70;;;;;;4931309;29;20127;-82
2021/11/25 07:20:59;;;;;;;55.05;33.05;;;4.30;82.70;;;;;;4932169;29;20059;-82
2021/11/25 07:23:26;;;;;;;56.08;34.20;;;4.40;82.70;;;;;;4931840;29;20051;-82
2021/11/25 07:25:53;;;;;;;54.63;35.35;;;4.40;82.80;;;;;;4932128;29;20051;-83
2021/11/25 07:28:20;;;;;;;57.50;33.03;;;4.40;82.80;;;;;;4932155;29;20048;-82
2021/11/25 07:30:47;;;;;;;54.88;31.50;;;4.40;82.80;;;;;;4934034;29;20051;-82
2021/11/25 07:33:14;;;;;;;55.03;32.70;;;4.40;82.80;;;;;;4931988;29;20512;-83
2021/11/25 07:35:43;;;;;;;51.17;32.08;;;4.50;82.90;;;;;;4931986;29;20095;-83
2021/11/25 07:38:10;;;;;;;57.45;34.83;;;4.50;82.90;;;;;;4931535;29;20047;-82
2021/11/25 07:40:37;;;;;;;54.20;33.42;;;4.40;82.90;;;;;;4930939;29;20074;-83
2021/11/25 07:43:06;;;;;;;52.33;33.00;;;4.50;82.90;;;;;;4924232;29;20062;-82
2021/11/25 07:45:34;;;;;;;54.53;32.80;;;4.50;83.00;;;;;;4931262;29;20421;-83
2021/11/25 07:48:01;;;;;;;56.55;34.45;;;4.50;83.00;;;;;;4931647;29;20059;-82
2021/11/25 07:50:29;;;;;;;56.40;32.45;;;4.50;83.00;;;;;;4932884;29;20047;-83
2021/11/25 07:52:57;;;;;;;58.60;32.67;;;4.50;83.00;;;;;;4931190;29;20070;-83
2021/11/25 07:55:25;;;;;;;58.63;33.95;;;4.50;83.00;;;;;;4932993;29;20059;-83
2021/11/25 07:57:52;;;;;;;52.20;32.40;;;4.50;83.00;;;;;;4934540;29;20424;-83
2021/11/25 08:00:25;;;;;;;54.45;33.30;;;4.60;83.00;;;;;;4932354;29;20051;-83
2021/11/25 08:02:52;;;;;;;55.78;34.78;;;4.60;83.10;;;;;;4932708;29;20481;-83
2021/11/25 08:05:20;;;;;;;56.97;34.35;;;4.60;83.10;;;;;;4932421;29;20550;-83
2021/11/25 08:07:47;;;;;;;53.78;33.40;;;4.60;83.10;;;;;;4931892;29;20102;-82
2021/11/25 08:10:14;;;;;;;51.15;31.77;;;4.60;83.10;;;;;;4933002;29;20509;-83
2021/11/25 08:12:42;;;;;;;52.80;31.85;;;4.60;83.20;;;;;;4934623;29;20055;-83
2021/11/25 08:15:11;;;;;;;52.53;33.80;;;4.60;83.20;;;;;;4932548;29;20067;-83
2021/11/25 08:17:38;;;;;;;52.58;33.88;;;4.60;83.20;;;;;;4932608;29;20138;-83
2021/11/25 08:20:06;;;;;;;57.17;33.90;;;4.70;83.20;;;;;;4932761;29;20054;-83
2021/11/25 08:22:33;;;;;;;55.72;34.35;;;4.70;83.30;;;;;;4932064;29;20083;-83
2021/11/25 08:25:02;;;;;;;50.20;32.00;;;4.70;83.30;;;;;;4934725;29;20054;-83
2021/11/25 08:27:29;;;;;;;54.00;33.28;;;4.70;83.30;;;;;;4932515;29;20067;-83
2021/11/25 08:29:56;;;;;;;51.75;32.97;;;4.70;83.30;;;;;;4932177;29;20052;-83
2021/11/25 08:32:23;;;;;;;57.40;34.78;;;4.70;83.40;;;;;;4931368;29;20052;-83
2021/11/25 08:34:50;;;;;;;52.03;32.60;;;4.70;83.40;;;;;;4932126;29;20075;-83
2021/11/25 08:37:17;;;;;;;52.53;33.42;;;4.80;83.40;;;;;;4932222;29;20475;-82
2021/11/25 08:39:47;;;;;;;52.45;33.30;;;4.70;83.40;;;;;;4934501;29;20044;-82
2021/11/25 08:42:14;;;;;;;53.75;32.58;;;4.80;83.40;;;;;;4932391;29;20051;-83
2021/11/25 08:44:42;;;;;;;55.20;34.40;;;4.80;83.50;;;;;;4932125;29;20048;-83
2021/11/25 08:47:09;;;;;;;56.20;33.95;;;4.80;83.50;;;;;;4932606;29;20056;-82
2021/11/25 08:49:36;;;;;;;48.10;32.05;;;4.90;83.50;;;;;;4932407;29;20044;-84
2021/11/25 08:52:04;;;;;;;55.65;32.67;;;4.90;83.50;;;;;;4933837;29;20052;-84
2021/11/25 08:54:32;;;;;;;55.65;31.90;;;4.90;83.50;;;;;;4931717;29;20087;-83
2021/11/25 08:57:00;;;;;;;53.80;31.70;;;4.90;83.50;;;;;;4933141;29;20059;-84
2021/11/25 08:59:27;;;;;;;52.83;32.25;;;4.90;83.60;;;;;;4935579;29;20516;-84
2021/11/25 09:01:54;;;;;;;51.80;31.02;;;4.90;83.60;;;;;;4935594;29;20048;-82
2021/11/25 09:04:21;;;;;;;49.05;31.17;;;5.00;83.60;;;;;;4935519;29;20452;-84
2021/11/25 09:06:48;;;;;;;49.25;30.80;;;5.00;83.50;;;;;;4936137;29;20073;-84
2021/11/25 09:09:15;;;;;;;50.47;31.40;;;5.00;83.60;;;;;;4935718;29;20054;-83
2021/11/25 09:11:43;;;;;;;50.90;31.35;;;5.00;83.60;;;;;;4934311;29;20056;-83
2021/11/25 09:14:10;;;;;;;51.20;32.38;;;5.00;83.60;;;;;;4935409;29;20417;-84
2021/11/25 09:16:37;;;;;;;56.90;33.85;;;5.10;83.60;;;;;;4935721;29;20104;-83
2021/11/25 09:19:05;;;;;;;54.90;31.02;;;5.10;83.60;;;;;;4936733;29;20055;-83
2021/11/25 09:21:33;;;;;;;44.65;30.80;;;5.20;83.60;;;;;;4934598;29;20059;-82
2021/11/25 09:24:05;;;;;;;51.70;32.72;;;5.20;83.60;;;;;;4935391;29;20094;-83
2021/11/25 09:26:33;;;;;;;50.42;31.00;;;5.30;83.60;;;;;;4935336;29;20512;-84
2021/11/25 09:29:05;;;;;;;51.03;30.73;;;5.30;83.60;;;;;;4934974;29;20134;-83
2021/11/25 09:31:33;;;;;;;49.30;30.20;;;5.30;83.60;;;;;;4919368;29;20052;-92
2021/11/25 09:34:00;;;;;;;50.63;31.33;;;5.30;83.60;;;;;;4918736;29;20492;-88
2021/11/25 09:36:29;;;;;;;46.80;30.23;;;5.40;83.60;;;;;;4935238;29;20048;-91
2021/11/25 09:38:57;;;;;;;43.15;29.80;;;5.40;83.60;;;;;;4933768;29;20047;-88
2021/11/25 09:41:25;;;;;;;46.78;31.08;;;5.40;83.60;;;;;;4935321;29;20043;-90
2021/11/25 09:43:52;;;;;;;46.67;30.15;;;5.40;83.60;;;;;;4934948;29;20539;-89
2021/11/25 09:46:22;;;;;;;44.50;30.08;;;5.50;83.60;;;;;;4935973;29;20103;-89
2021/11/25 09:48:53;;;;;;;48.35;29.85;;;5.50;83.60;;;;;;4936914;29;20136;-89
2021/11/25 09:51:23;;;;;;;44.85;29.77;;;5.50;83.60;;;;;;4934009;29;20760;-89
2021/11/25 09:53:52;;;;;;;44.90;29.85;;;5.50;83.60;;;;;;4935045;29;20087;-88
2021/11/25 09:56:19;;;;;;;39.42;27.10;;;5.60;83.60;;;;;;4933753;29;20044;-90
2021/11/25 09:58:47;;;;;;;44.85;29.30;;;5.70;83.60;;;;;;4933962;29;20044;-88
2021/11/25 10:01:18;;;;;;;40.97;28.25;;;5.70;83.50;;;;;;4936164;29;20048;-89
2021/11/25 10:03:49;;;;;;;39.55;26.73;;;5.70;83.50;;;;;;4935074;29;20405;-89
2021/11/25 10:06:26;;;;;;;41.85;27.38;;;5.70;83.50;;;;;;4934761;29;20059;-90
2021/11/25 10:08:53;;;;;;;39.58;26.88;;;5.80;83.50;;;;;;4934337;29;20052;-89
2021/11/25 10:11:37;;;;;;;44.60;28.00;;;5.80;83.50;;;;;;4934807;29;20099;-89
2021/11/25 10:14:08;;;;;;;40.95;26.70;;;5.80;83.50;;;;;;4932653;29;20052;-89
2021/11/25 10:16:45;;;;;;;40.85;27.25;;;5.90;83.40;;;;;;4921253;29;20540;-89
2021/11/25 10:19:18;;;;;;;40.42;26.40;;;5.90;83.40;;;;;;4935986;29;20528;-89
2021/11/25 10:21:53;;;;;;;38.55;26.05;;;5.90;83.40;;;;;;4935021;29;20051;-90
2021/11/25 10:24:51;;;;;;;40.05;25.38;;;5.90;83.40;;;;;;4935960;29;20479;-89
2021/11/25 10:27:27;;;;;;;41.00;25.52;;;5.90;83.40;;;;;;4929029;29;20052;-88
2021/11/25 10:30:13;;;;;;;36.97;24.55;;;6.00;83.40;;;;;;4933338;29;20055;-88
2021/11/25 10:32:40;;;;;;;38.78;25.38;;;6.00;83.40;;;;;;4937324;29;20066;-90
2021/11/25 10:38:46;;;;;;;37.22;24.67;;;6.00;83.40;;;;;;4928117;29;20108;-92
2021/11/25 10:41:13;;;;;;;36.00;24.30;;;6.00;83.40;;;;;;4920721;29;20584;-91
2021/11/25 10:43:40;;;;;;;38.58;24.33;;;6.00;83.40;;;;;;4937491;29;20062;-92
2021/11/25 10:46:07;;;;;;;37.65;25.85;;;6.10;83.40;;;;;;4937497;29;20055;-90
2021/11/25 10:48:38;;;;;;;39.20;25.73;;;6.10;83.40;;;;;;4936887;29;20055;-90
2021/11/25 10:51:31;;;;;;;39.92;25.67;;;6.10;83.50;;;;;;4937613;29;20134;-90
2021/11/25 10:54:05;;;;;;;38.22;24.23;;;6.20;83.50;;;;;;4936850;29;20094;-92
2021/11/25 10:56:39;;;;;;;35.70;24.25;;;6.20;83.50;;;;;;4934985;29;20103;-91
2021/11/25 10:59:07;;;;;;;37.33;24.25;;;6.20;83.60;;;;;;4932887;29;20493;-89
2021/11/25 11:01:37;;;;;;;36.53;25.88;;;6.20;83.60;;;;;;4932524;29;20091;-93
2021/11/25 11:04:06;;;;;;;39.60;25.55;;;6.30;83.60;;;;;;4917648;29;20056;-91
2021/11/25 11:06:36;;;;;;;47.33;28.73;;;6.30;83.60;;;;;;4936728;29;20057;-90
2021/11/25 11:09:06;;;;;;;38.03;25.73;;;6.30;83.60;;;;;;4935938;29;20047;-90
2021/11/25 11:11:35;;;;;;;39.42;25.20;;;6.40;83.70;;;;;;4936818;29;20469;-91
2021/11/25 11:14:29;;;;;;;41.40;25.42;;;6.40;83.70;;;;;;4929225;29;20099;-91
2021/11/25 11:17:19;;;;;;;;;;;6.40;83.70;;;;;;4918006;29;20052;-90
2021/11/25 11:20:09;;;;;;;41.17;26.90;;;6.50;83.70;;;;;;4920629;29;20380;-90
2021/11/25 11:22:37;;;;;;;38.38;26.13;;;6.50;83.80;;;;;;4917561;29;20498;-92
2021/11/25 11:25:06;;;;;;;43.25;26.85;;;6.50;83.80;;;;;;4917748;29;20051;-91
2021/11/25 11:27:33;;;;;;;42.17;26.48;;;6.50;83.80;;;;;;4936262;29;20052;-91
2021/11/25 11:30:00;;;;;;;40.00;27.40;;;6.60;83.80;;;;;;4936438;29;20538;-91
2021/11/25 11:32:27;;;;;;;38.63;26.08;;;6.60;83.90;;;;;;4925709;29;20052;-91
2021/11/25 11:34:54;;;;;;;38.05;25.73;;;6.70;83.90;;;;;;4922113;29;20497;-92
2021/11/25 11:37:21;;;;;;;40.85;26.23;;;6.70;83.90;;;;;;4935090;29;20528;-91
2021/11/25 11:39:49;;;;;;;36.10;25.05;;;6.80;83.90;;;;;;4917647;29;20052;-90
2021/11/25 11:42:16;;;;;;;35.30;25.25;;;6.90;83.90;;;;;;4934595;29;20379;-91
2021/11/25 11:44:45;;;;;;;36.97;25.35;;;6.90;83.80;;;;;;4924093;29;20056;-92
2021/11/25 11:47:13;;;;;;;38.25;25.70;;;6.90;83.80;;;;;;4917683;29;20055;-92
2021/11/25 11:49:44;;;;;;;40.92;26.52;;;6.90;83.80;;;;;;4916819;29;20056;-90
2021/11/25 11:52:17;;;;;;;35.83;25.20;;;7.00;83.70;;;;;;4917793;29;20059;-90
2021/11/25 11:54:55;;;;;;;38.35;25.02;;;7.00;83.70;;;;;;4930378;29;20048;-91
2021/11/25 11:57:32;;;;;;;39.38;24.60;;;7.10;83.70;;;;;;4934965;29;20398;-90
2021/11/25 12:00:28;;;;;;;36.95;24.52;;;7.20;83.70;;;;;;4936145;29;20420;-91
2021/11/25 12:02:57;;;;;;;33.60;24.55;;;7.20;83.60;;;;;;4931260;29;20055;-91
2021/11/25 12:05:39;;;;;;;36.53;23.80;;;7.20;83.60;;;;;;4931745;29;20135;-91
2021/11/25 12:08:21;;;;;;;33.13;23.40;;;7.30;83.60;;;;;;4935564;29;20135;-92
2021/11/25 12:10:57;;;;;;;32.05;22.45;;;7.30;83.60;;;;;;4937251;29;20513;-92
2021/11/25 12:13:55;;;;;;;34.47;23.70;;;7.40;83.50;;;;;;4936081;29;20517;-92
2021/11/25 12:16:22;;;;;;;32.78;23.13;;;7.40;83.50;;;;;;4935291;29;20055;-92
2021/11/25 12:18:53;;;;;;;36.22;23.48;;;7.40;83.40;;;;;;4937287;29;20091;-93
2021/11/25 12:21:37;;;;;;;24.50;15.82;;;7.40;83.40;;;;;;4937103;29;20052;-92
2021/11/25 12:24:33;;;;;;;20.83;14.00;;;7.40;83.40;;;;;;4937383;29;20079;-92
2021/11/25 12:27:11;;;;;;;28.80;19.08;;;7.40;83.40;;;;;;4934573;29;20052;-89
2021/11/25 12:29:49;;;;;;;30.60;20.85;;;7.40;83.40;;;;;;4935215;29;20055;-94
2021/11/25 12:33:08;;;;;;;28.48;17.50;;;7.50;83.40;;;;;;4936549;29;20044;-93
2021/11/25 12:35:17;;;;;;;24.33;15.77;;;7.50;83.30;;;;;;4932746;29;20111;-94
2021/11/25 12:37:47;;;;;;;21.10;15.02;;;7.50;83.30;;;;;;4922489;29;20110;-91
2021/11/25 12:40:35;;;;;;;22.50;13.25;;;7.50;83.30;;;;;;4937007;29;20048;-90
2021/11/25 12:43:17;;;;;;;24.48;12.40;;;7.50;83.20;;;;;;4918058;29;20053;-91
2021/11/25 12:45:46;;;;;;;20.38;11.40;;;7.40;83.20;;;;;;4918125;29;20052;-90
2021/11/25 12:48:43;;;;;;;20.90;11.77;;;7.40;83.20;;;;;;4934600;29;20079;-91
2021/11/25 12:51:13;;;;;;;21.08;9.98;;;7.40;83.20;;;;;;4917007;29;20063;-91
2021/11/25 12:53:46;;;;;;;17.17;10.77;;;7.40;83.20;;;;;;4935806;29;20095;-91
2021/11/25 12:56:16;;;;;;;16.30;8.98;;;7.40;83.30;;;;;;4933797;29;20517;-90
2021/11/25 12:58:49;;;;;;;16.00;8.60;;;7.40;83.30;;;;;;4936167;29;20505;-90